KCWA/CWA METAR and TAF weather

Enter ICAO airport designator
Station Type Date Time Source
KCWA METAR 2019/04/25 01:45 UTC NOAA

KCWA 250145Z 21008KT 10SM SCT100 13/03 A2977


Station Type Date Time Source
KCWA Decoded METAR 2019/04/25 01:45 UTC NOAA

Mosinee / Central Wisconsin, WI, United States (KCWA) 44-47N 089-40W
Apr 24, 2019 - 09:45 PM EDT / 2019.04.25 0145 UTC
Wind: from the SSW (210 degrees) at 9 MPH (8 KT):0
Visibility: 10 mile(s):0
Sky conditions: partly cloudy
Temperature: 55 F (13 C)
Dew Point: 37 F (3 C)
Relative Humidity: 50%
Pressure (altimeter): 29.77 in. Hg (1008 hPa)
ob: KCWA 250145Z 21008KT 10SM SCT100 13/03 A2977
cycle: 2

Station Type Date Time Source
KCWA TAF 2019/04/24 18:24 UTC NOAA

TAF KCWA 241720Z 2418/2518 22014G20KT P6SM FEW045 SCT120 BKN200
FM250000 20009KT P6SM SCT100 BKN200
FM250800 21005KT P6SM -SHRA SCT040 BKN100
FM251200 30004KT P6SM VCSH SCT015 OVC040 PROB30 2512/2516 5SM -SHRA BR BKN015
FM251600 32007KT P6SM VCSH BKN060

Example: see airport list